Sankuniki — JD2465 — position and weather

sailwx.info

Track history (hours):
 
Tides and Currents Weather Stations Pressure Air Temp Water Temp Dewpoint Dewpoint Depression Visibility Wind Speed Wind Dir Waves Ship Positions

Sankuniki

Last reported at 2018-Feb-23 23:39 UTC. Time now 2018-Feb-25 13:24 UTC.
Position N 34°58' E 140°07'.

Length 71 m; draft 4.5 m.

Type: Cargo ship. MMSI: 431000269.

Date/timePositionNaut miles runAvg speedWind from/ knotsBaromVisibWave heightAir tempDewpointWater temp
2018-Feb-23 23:39N 34°58' E 140°07'3512.0
2018-Feb-23 20:43N 34°50' E 139°25'511.9
2018-Feb-23 20:18N 34°48' E 139°19'412.4
2018-Feb-23 19:57N 34°46' E 139°15'712.8
2018-Feb-23 19:22N 34°41' E 139°08'512.3
2018-Feb-23 18:59N 34°39' E 139°03'612.3
2018-Feb-23 18:30N 34°36' E 138°57'611.8
2018-Feb-23 17:59N 34°35' E 138°49'612.2
2018-Feb-23 17:27N 34°34' E 138°42'612.2
2018-Feb-23 16:59N 34°34' E 138°35'5913.0
2018-Feb-23 12:27N 34°32' E 137°23'713.1
2018-Feb-23 11:56N 34°32' E 137°15'1211.9
2018-Feb-23 10:56N 34°33' E 137°00'711.2
2018-Feb-23 10:20N 34°38' E 136°54'412.4
2018-Feb-23 10:00N 34°40' E 136°50'612.9
2018-Feb-23 09:30N 34°46' E 136°47'612.7
2018-Feb-23 09:00N 34°52' E 136°46'612.8
2018-Feb-23 08:30N 34°58' E 136°48'612.2
2018-Feb-23 08:00N 35°04' E 136°52'2 3.3
2018-Feb-23 07:30N 35°05' E 136°53'0 0.0
2018-Feb-23 07:00N 35°05' E 136°53'0 0.0
2018-Feb-23 06:30N 35°05' E 136°53'0 0.0
2018-Feb-23 06:00N 35°05' E 136°53'0 0.0
2018-Feb-23 05:30N 35°05' E 136°53'0 0.0
2018-Feb-23 05:00N 35°05' E 136°53'0 0.0
2018-Feb-23 04:30N 35°05' E 136°53'0 0.0
2018-Feb-23 04:00N 35°05' E 136°53'0 0.0
2018-Feb-23 03:30N 35°05' E 136°53'0 0.0
2018-Feb-23 02:54N 35°05' E 136°53'0 0.0
2018-Feb-23 02:30N 35°05' E 136°53'0 0.0
2018-Feb-23 02:00N 35°05' E 136°53'0 0.0
2018-Feb-23 01:30N 35°05' E 136°53'0 0.0
2018-Feb-23 01:00N 35°05' E 136°53'0 0.0
2018-Feb-23 00:30N 35°05' E 136°53'0 0.0
2018-Feb-23 00:00N 35°05' E 136°53'0 0.0
2018-Feb-22 23:27N 35°05' E 136°53'0 0.0
2018-Feb-22 23:00N 35°05' E 136°53'0 0.0
2018-Feb-22 22:30N 35°05' E 136°53'0 0.4
2018-Feb-22 21:59N 35°05' E 136°53'0 0.0
2018-Feb-22 21:29N 35°05' E 136°53'0 0.0
2018-Feb-22 20:59N 35°05' E 136°53'0 0.0
2018-Feb-22 20:23N 35°05' E 136°53'0 0.0
2018-Feb-22 19:59N 35°05' E 136°53'0 0.0
2018-Feb-22 19:29N 35°05' E 136°53'0 0.0
2018-Feb-22 18:59N 35°05' E 136°53'0 0.0
2018-Feb-22 18:29N 35°05' E 136°53'0 0.0
2018-Feb-22 17:59N 35°05' E 136°53'0 0.0
2018-Feb-22 17:29N 35°05' E 136°53'0 0.0
2018-Feb-22 16:59N 35°05' E 136°53'0 0.0
2018-Feb-22 16:29N 35°05' E 136°53'0 0.0
2018-Feb-22 15:59N 35°05' E 136°53'3 6.9
2018-Feb-22 15:30N 35°02' E 136°51'612.6
2018-Feb-22 15:00N 34°56' E 136°47'612.6
2018-Feb-22 14:30N 34°50' E 136°47'612.8
2018-Feb-22 14:00N 34°44' E 136°50'7111.9
2018-Feb-22 08:04N 34°34' E 138°15'113.1
2018-Feb-22 07:59N 34°34' E 138°16'813.1
2018-Feb-22 07:22N 34°41' E 138°21'513.5
2018-Feb-22 07:00N 34°45' E 138°24'713.8
2018-Feb-22 06:29N 34°52' E 138°28'613.1
2018-Feb-22 06:00N 34°57' E 138°31'4 8.2
2018-Feb-22 05:30N 35°01' E 138°30'2 3.3
2018-Feb-22 05:00N 34°60' E 138°30'0 0.0
2018-Feb-22 04:29N 34°60' E 138°30'0 0.0
2018-Feb-22 03:59N 34°60' E 138°30'0 0.0
2018-Feb-22 03:29N 34°60' E 138°30'0 0.0
2018-Feb-22 02:59N 34°60' E 138°30'0 0.0
2018-Feb-22 02:29N 34°60' E 138°30'0 0.0
2018-Feb-22 01:59N 34°60' E 138°30'0 0.0
2018-Feb-22 01:29N 34°60' E 138°30'0 0.0
2018-Feb-22 00:59N 34°60' E 138°30'0 0.0
2018-Feb-22 00:29N 34°60' E 138°30'0 0.0
2018-Feb-21 23:59N 34°60' E 138°30'0 0.0
2018-Feb-21 23:29N 34°60' E 138°30'0 0.0
2018-Feb-21 22:59N 34°60' E 138°30'0 0.0
2018-Feb-21 22:29N 34°60' E 138°30'2 3.1
2018-Feb-21 22:00N 35°01' E 138°30'0 0.1
2018-Feb-21 21:30N 35°01' E 138°30'0 0.0
2018-Feb-21 20:57N 35°01' E 138°30'0 0.0
2018-Feb-21 20:30N 35°01' E 138°30'0 0.0
2018-Feb-21 20:00N 35°01' E 138°30'0 0.0
2018-Feb-21 19:30N 35°01' E 138°30'0 0.1
2018-Feb-21 19:00N 35°01' E 138°30'0 0.0
2018-Feb-21 18:30N 35°01' E 138°30'0 0.2
2018-Feb-21 18:00N 35°01' E 138°30'4 8.4
2018-Feb-21 17:30N 34°59' E 138°35'612.3
2018-Feb-21 17:00N 34°53' E 138°37'612.5
2018-Feb-21 16:29N 34°47' E 138°39'28 9.1
2018-Feb-21 13:23N 34°46' E 139°14'1211.7
2018-Feb-21 12:20N 34°49' E 139°28'38 1.7
2018-Feb-20 13:44N 35°01' E 140°12'515.3
2018-Feb-20 13:24N 34°59' E 140°06'1613.5
2018-Feb-20 12:12N 34°53' E 139°48'1211.8
2018-Feb-20 11:12N 35°04' E 139°43'211.7
2018-Feb-20 11:00N 35°06' E 139°44'611.9
2018-Feb-20 10:30N 35°12' E 139°46'510.7
2018-Feb-20 10:01N 35°17' E 139°45'612.5
2018-Feb-20 09:30N 35°23' E 139°42'612.2
2018-Feb-20 09:00N 35°28' E 139°48'611.7
2018-Feb-20 08:30N 35°33' E 139°51'5 7.6
2018-Feb-20 07:48N 35°37' E 139°48'0 0.0
2018-Feb-20 07:21N 35°37' E 139°48'0 0.0
2018-Feb-20 06:51N 35°37' E 139°48'0 0.0
2018-Feb-19 22:01N 35°37' E 139°48'0 2.7
2018-Feb-19 21:59N 35°37' E 139°48'4 6.3
2018-Feb-19 21:23N 35°35' E 139°51'0 0.1
2018-Feb-19 20:56N 35°35' E 139°51'0 0.0
2018-Feb-19 20:23N 35°35' E 139°51'0 0.0
2018-Feb-19 19:56N 35°35' E 139°51'0 0.0
2018-Feb-19 19:26N 35°35' E 139°51'0 0.0
2018-Feb-19 18:56N 35°35' E 139°51'0 0.0
2018-Feb-19 18:17N 35°35' E 139°51'0 0.2
2018-Feb-19 17:59N 35°35' E 139°51'0 0.1
2018-Feb-19 17:23N 35°35' E 139°51'2 6.0
2018-Feb-19 17:00N 35°33' E 139°52'611.5
2018-Feb-19 16:30N 35°27' E 139°50'612.2
2018-Feb-19 16:00N 35°22' E 139°45'611.1
2018-Feb-19 15:30N 35°17' E 139°46'611.2
2018-Feb-19 15:00N 35°11' E 139°46'912.4
2018-Feb-19 14:18N 35°04' E 139°41'413.0
2018-Feb-19 14:00N 35°01' E 139°37'1412.9
2018-Feb-19 12:55N 34°53' E 139°23'713.4
2018-Feb-19 12:25N 34°48' E 139°17'613.8
2018-Feb-19 11:58N 34°44' E 139°12'613.1
2018-Feb-19 11:29N 34°40' E 139°06'712.4
2018-Feb-19 10:55N 34°36' E 138°58'512.5
2018-Feb-19 10:30N 34°35' E 138°52'712.7
2018-Feb-19 09:54N 34°34' E 138°43'613.3
2018-Feb-19 09:29N 34°33' E 138°37'1713.2
2018-Feb-19 08:11N 34°33' E 138°16'313.4
2018-Feb-19 07:59N 34°32' E 138°13'  
2018-Feb-14 09:06N 34°34' E 136°60'213.0
2018-Feb-14 08:58N 34°35' E 136°58'612.6
2018-Feb-14 08:30N 34°39' E 136°52'612.3
2018-Feb-14 08:00N 34°44' E 136°48'612.5
2018-Feb-14 07:30N 34°49' E 136°45'612.4
2018-Feb-14 07:01N 34°55' E 136°46'612.6
2018-Feb-14 06:30N 35°01' E 136°50'3 5.7
2018-Feb-14 06:00N 35°03' E 136°52'0 0.1
2018-Feb-14 05:31N 35°03' E 136°52'0 0.0
2018-Feb-14 05:01N 35°03' E 136°52'0 0.1
2018-Feb-14 04:30N 35°03' E 136°52'0 0.0
2018-Feb-14 04:00N 35°03' E 136°52'0 0.0
2018-Feb-14 03:30N 35°03' E 136°52'0 0.1
2018-Feb-14 03:00N 35°03' E 136°52'0 0.1
2018-Feb-14 02:30N 35°03' E 136°52'0 0.1
2018-Feb-14 02:00N 35°03' E 136°52'0 0.0
2018-Feb-14 01:30N 35°03' E 136°52'0 0.0
2018-Feb-14 01:00N 35°03' E 136°52'0 0.1
2018-Feb-14 00:31N 35°03' E 136°52'0 0.0
2018-Feb-14 00:00N 35°03' E 136°52'  
Track history (hours):
 
Tides and Currents Weather Stations Pressure Air Temp Water Temp Dewpoint Dewpoint Depression Visibility Wind Speed Wind Dir Waves Ship Positions

Sankuniki

Last reported at 2018-Feb-23 23:39 UTC. Time now 2018-Feb-25 13:24 UTC.
Position N 34°58' E 140°07'.

Length 71 m; draft 4.5 m.

Type: Cargo ship. MMSI: 431000269.

Date/timePositionNaut miles runAvg speedWind from/ knotsBaromVisibWave heightAir tempDewpointWater temp
2018-Feb-23 23:39N 34°58' E 140°07'3512.0
2018-Feb-23 20:43N 34°50' E 139°25'511.9
2018-Feb-23 20:18N 34°48' E 139°19'412.4
2018-Feb-23 19:57N 34°46' E 139°15'712.8
2018-Feb-23 19:22N 34°41' E 139°08'512.3
2018-Feb-23 18:59N 34°39' E 139°03'612.3
2018-Feb-23 18:30N 34°36' E 138°57'611.8
2018-Feb-23 17:59N 34°35' E 138°49'612.2
2018-Feb-23 17:27N 34°34' E 138°42'612.2
2018-Feb-23 16:59N 34°34' E 138°35'5913.0
2018-Feb-23 12:27N 34°32' E 137°23'713.1
2018-Feb-23 11:56N 34°32' E 137°15'1211.9
2018-Feb-23 10:56N 34°33' E 137°00'711.2
2018-Feb-23 10:20N 34°38' E 136°54'412.4
2018-Feb-23 10:00N 34°40' E 136°50'612.9
2018-Feb-23 09:30N 34°46' E 136°47'612.7
2018-Feb-23 09:00N 34°52' E 136°46'612.8
2018-Feb-23 08:30N 34°58' E 136°48'612.2
2018-Feb-23 08:00N 35°04' E 136°52'2 3.3
2018-Feb-23 07:30N 35°05' E 136°53'0 0.0
2018-Feb-23 07:00N 35°05' E 136°53'0 0.0
2018-Feb-23 06:30N 35°05' E 136°53'0 0.0
2018-Feb-23 06:00N 35°05' E 136°53'0 0.0
2018-Feb-23 05:30N 35°05' E 136°53'0 0.0
2018-Feb-23 05:00N 35°05' E 136°53'0 0.0
2018-Feb-23 04:30N 35°05' E 136°53'0 0.0
2018-Feb-23 04:00N 35°05' E 136°53'0 0.0
2018-Feb-23 03:30N 35°05' E 136°53'0 0.0
2018-Feb-23 02:54N 35°05' E 136°53'0 0.0
2018-Feb-23 02:30N 35°05' E 136°53'0 0.0
2018-Feb-23 02:00N 35°05' E 136°53'0 0.0
2018-Feb-23 01:30N 35°05' E 136°53'0 0.0
2018-Feb-23 01:00N 35°05' E 136°53'0 0.0
2018-Feb-23 00:30N 35°05' E 136°53'0 0.0
2018-Feb-23 00:00N 35°05' E 136°53'0 0.0
2018-Feb-22 23:27N 35°05' E 136°53'0 0.0
2018-Feb-22 23:00N 35°05' E 136°53'0 0.0
2018-Feb-22 22:30N 35°05' E 136°53'0 0.4
2018-Feb-22 21:59N 35°05' E 136°53'0 0.0
2018-Feb-22 21:29N 35°05' E 136°53'0 0.0
2018-Feb-22 20:59N 35°05' E 136°53'0 0.0
2018-Feb-22 20:23N 35°05' E 136°53'0 0.0
2018-Feb-22 19:59N 35°05' E 136°53'0 0.0
2018-Feb-22 19:29N 35°05' E 136°53'0 0.0
2018-Feb-22 18:59N 35°05' E 136°53'0 0.0
2018-Feb-22 18:29N 35°05' E 136°53'0 0.0
2018-Feb-22 17:59N 35°05' E 136°53'0 0.0
2018-Feb-22 17:29N 35°05' E 136°53'0 0.0
2018-Feb-22 16:59N 35°05' E 136°53'0 0.0
2018-Feb-22 16:29N 35°05' E 136°53'0 0.0
2018-Feb-22 15:59N 35°05' E 136°53'3 6.9
2018-Feb-22 15:30N 35°02' E 136°51'612.6
2018-Feb-22 15:00N 34°56' E 136°47'612.6
2018-Feb-22 14:30N 34°50' E 136°47'612.8
2018-Feb-22 14:00N 34°44' E 136°50'7111.9
2018-Feb-22 08:04N 34°34' E 138°15'113.1
2018-Feb-22 07:59N 34°34' E 138°16'813.1
2018-Feb-22 07:22N 34°41' E 138°21'513.5
2018-Feb-22 07:00N 34°45' E 138°24'713.8
2018-Feb-22 06:29N 34°52' E 138°28'613.1
2018-Feb-22 06:00N 34°57' E 138°31'4 8.2
2018-Feb-22 05:30N 35°01' E 138°30'2 3.3
2018-Feb-22 05:00N 34°60' E 138°30'0 0.0
2018-Feb-22 04:29N 34°60' E 138°30'0 0.0
2018-Feb-22 03:59N 34°60' E 138°30'0 0.0
2018-Feb-22 03:29N 34°60' E 138°30'0 0.0
2018-Feb-22 02:59N 34°60' E 138°30'0 0.0
2018-Feb-22 02:29N 34°60' E 138°30'0 0.0
2018-Feb-22 01:59N 34°60' E 138°30'0 0.0
2018-Feb-22 01:29N 34°60' E 138°30'0 0.0
2018-Feb-22 00:59N 34°60' E 138°30'0 0.0
2018-Feb-22 00:29N 34°60' E 138°30'0 0.0
2018-Feb-21 23:59N 34°60' E 138°30'0 0.0
2018-Feb-21 23:29N 34°60' E 138°30'0 0.0
2018-Feb-21 22:59N 34°60' E 138°30'0 0.0
2018-Feb-21 22:29N 34°60' E 138°30'2 3.1
2018-Feb-21 22:00N 35°01' E 138°30'0 0.1
2018-Feb-21 21:30N 35°01' E 138°30'0 0.0
2018-Feb-21 20:57N 35°01' E 138°30'0 0.0
2018-Feb-21 20:30N 35°01' E 138°30'0 0.0
2018-Feb-21 20:00N 35°01' E 138°30'0 0.0
2018-Feb-21 19:30N 35°01' E 138°30'0 0.1
2018-Feb-21 19:00N 35°01' E 138°30'0 0.0
2018-Feb-21 18:30N 35°01' E 138°30'0 0.2
2018-Feb-21 18:00N 35°01' E 138°30'4 8.4
2018-Feb-21 17:30N 34°59' E 138°35'612.3
2018-Feb-21 17:00N 34°53' E 138°37'612.5
2018-Feb-21 16:29N 34°47' E 138°39'28 9.1
2018-Feb-21 13:23N 34°46' E 139°14'1211.7
2018-Feb-21 12:20N 34°49' E 139°28'38 1.7
2018-Feb-20 13:44N 35°01' E 140°12'515.3
2018-Feb-20 13:24N 34°59' E 140°06'1613.5
2018-Feb-20 12:12N 34°53' E 139°48'1211.8
2018-Feb-20 11:12N 35°04' E 139°43'211.7
2018-Feb-20 11:00N 35°06' E 139°44'611.9
2018-Feb-20 10:30N 35°12' E 139°46'510.7
2018-Feb-20 10:01N 35°17' E 139°45'612.5
2018-Feb-20 09:30N 35°23' E 139°42'612.2
2018-Feb-20 09:00N 35°28' E 139°48'611.7
2018-Feb-20 08:30N 35°33' E 139°51'5 7.6
2018-Feb-20 07:48N 35°37' E 139°48'0 0.0
2018-Feb-20 07:21N 35°37' E 139°48'0 0.0
2018-Feb-20 06:51N 35°37' E 139°48'0 0.0
2018-Feb-19 22:01N 35°37' E 139°48'0 2.7
2018-Feb-19 21:59N 35°37' E 139°48'4 6.3
2018-Feb-19 21:23N 35°35' E 139°51'0 0.1
2018-Feb-19 20:56N 35°35' E 139°51'0 0.0
2018-Feb-19 20:23N 35°35' E 139°51'0 0.0
2018-Feb-19 19:56N 35°35' E 139°51'0 0.0
2018-Feb-19 19:26N 35°35' E 139°51'0 0.0
2018-Feb-19 18:56N 35°35' E 139°51'0 0.0
2018-Feb-19 18:17N 35°35' E 139°51'0 0.2
2018-Feb-19 17:59N 35°35' E 139°51'0 0.1
2018-Feb-19 17:23N 35°35' E 139°51'2 6.0
2018-Feb-19 17:00N 35°33' E 139°52'611.5
2018-Feb-19 16:30N 35°27' E 139°50'612.2
2018-Feb-19 16:00N 35°22' E 139°45'611.1
2018-Feb-19 15:30N 35°17' E 139°46'611.2
2018-Feb-19 15:00N 35°11' E 139°46'912.4
2018-Feb-19 14:18N 35°04' E 139°41'413.0
2018-Feb-19 14:00N 35°01' E 139°37'1412.9
2018-Feb-19 12:55N 34°53' E 139°23'713.4
2018-Feb-19 12:25N 34°48' E 139°17'613.8
2018-Feb-19 11:58N 34°44' E 139°12'613.1
2018-Feb-19 11:29N 34°40' E 139°06'712.4
2018-Feb-19 10:55N 34°36' E 138°58'512.5
2018-Feb-19 10:30N 34°35' E 138°52'712.7
2018-Feb-19 09:54N 34°34' E 138°43'613.3
2018-Feb-19 09:29N 34°33' E 138°37'1713.2
2018-Feb-19 08:11N 34°33' E 138°16'313.4
2018-Feb-19 07:59N 34°32' E 138°13'  
2018-Feb-14 09:06N 34°34' E 136°60'213.0
2018-Feb-14 08:58N 34°35' E 136°58'612.6
2018-Feb-14 08:30N 34°39' E 136°52'612.3
2018-Feb-14 08:00N 34°44' E 136°48'612.5
2018-Feb-14 07:30N 34°49' E 136°45'612.4
2018-Feb-14 07:01N 34°55' E 136°46'612.6
2018-Feb-14 06:30N 35°01' E 136°50'3 5.7
2018-Feb-14 06:00N 35°03' E 136°52'0 0.1
2018-Feb-14 05:31N 35°03' E 136°52'0 0.0
2018-Feb-14 05:01N 35°03' E 136°52'0 0.1
2018-Feb-14 04:30N 35°03' E 136°52'0 0.0
2018-Feb-14 04:00N 35°03' E 136°52'0 0.0
2018-Feb-14 03:30N 35°03' E 136°52'0 0.1
2018-Feb-14 03:00N 35°03' E 136°52'0 0.1
2018-Feb-14 02:30N 35°03' E 136°52'0 0.1
2018-Feb-14 02:00N 35°03' E 136°52'0 0.0
2018-Feb-14 01:30N 35°03' E 136°52'0 0.0
2018-Feb-14 01:00N 35°03' E 136°52'0 0.1
2018-Feb-14 00:31N 35°03' E 136°52'0 0.0
2018-Feb-14 00:00N 35°03' E 136°52'  

Dump ship's entire track history